sensor_id;sensor_type;location;lat;lon;timestamp;pressure;altitude;pressure_sealevel;temperature;humidity
78839;BME280;68405;47.190;27.558;2023-04-05T00:01:48;99469.45;;;-0.63;93.50
78839;BME280;68405;47.190;27.558;2023-04-05T00:04:22;99473.21;;;-0.62;93.50
78839;BME280;68405;47.190;27.558;2023-04-05T00:06:54;99468.43;;;-0.62;93.17
78839;BME280;68405;47.190;27.558;2023-04-05T00:09:26;99471.83;;;-0.66;93.21
78839;BME280;68405;47.190;27.558;2023-04-05T00:11:58;99468.59;;;-0.68;93.41
78839;BME280;68405;47.190;27.558;2023-04-05T00:14:30;99475.59;;;-0.66;93.26
78839;BME280;68405;47.190;27.558;2023-04-05T00:17:01;99465.69;;;-0.66;93.21
78839;BME280;68405;47.190;27.558;2023-04-05T00:19:33;99465.19;;;-0.63;93.24
78839;BME280;68405;47.190;27.558;2023-04-05T00:22:06;99466.89;;;-0.63;93.47
78839;BME280;68405;47.190;27.558;2023-04-05T00:24:39;99466.04;;;-0.67;93.28
78839;BME280;68405;47.190;27.558;2023-04-05T00:27:13;99467.38;;;-0.70;93.61
78839;BME280;68405;47.190;27.558;2023-04-05T00:29:45;99458.01;;;-0.71;93.26
78839;BME280;68405;47.190;27.558;2023-04-05T00:32:22;99456.64;;;-0.68;93.46
78839;BME280;68405;47.190;27.558;2023-04-05T00:34:54;99452.90;;;-0.65;93.15
78839;BME280;68405;47.190;27.558;2023-04-05T00:37:25;99452.91;;;-0.61;93.37
78839;BME280;68405;47.190;27.558;2023-04-05T00:39:57;99453.95;;;-0.60;93.07
78839;BME280;68405;47.190;27.558;2023-04-05T00:42:28;99452.75;;;-0.63;93.20
78839;BME280;68405;47.190;27.558;2023-04-05T00:45:00;99449.99;;;-0.67;93.27
78839;BME280;68405;47.190;27.558;2023-04-05T00:47:32;99444.36;;;-0.69;93.12
78839;BME280;68405;47.190;27.558;2023-04-05T00:50:07;99442.84;;;-0.68;92.96
78839;BME280;68405;47.190;27.558;2023-04-05T00:52:39;99441.83;;;-0.65;93.08
78839;BME280;68405;47.190;27.558;2023-04-05T00:55:11;99442.52;;;-0.62;92.94
78839;BME280;68405;47.190;27.558;2023-04-05T00:57:43;99444.89;;;-0.63;92.80
78839;BME280;68405;47.190;27.558;2023-04-05T01:00:16;99429.35;;;-0.67;93.08
78839;BME280;68405;47.190;27.558;2023-04-05T01:02:54;99437.19;;;-0.72;92.88
78839;BME280;68405;47.190;27.558;2023-04-05T01:05:33;99439.75;;;-0.71;92.84
78839;BME280;68405;47.190;27.558;2023-04-05T01:08:15;99439.23;;;-0.70;93.03
78839;BME280;68405;47.190;27.558;2023-04-05T01:10:54;99443.02;;;-0.67;93.13
78839;BME280;68405;47.190;27.558;2023-04-05T01:13:27;99430.91;;;-0.64;93.00
78839;BME280;68405;47.190;27.558;2023-04-05T01:15:59;99438.23;;;-0.64;92.88
78839;BME280;68405;47.190;27.558;2023-04-05T01:18:31;99431.09;;;-0.65;92.77
78839;BME280;68405;47.190;27.558;2023-04-05T01:21:24;99428.33;;;-0.69;93.01
78839;BME280;68405;47.190;27.558;2023-04-05T01:24:14;99424.42;;;-0.71;92.79
78839;BME280;68405;47.190;27.558;2023-04-05T01:27:05;99428.00;;;-0.69;92.92
78839;BME280;68405;47.190;27.558;2023-04-05T01:30:00;99417.43;;;-0.67;92.94
78839;BME280;68405;47.190;27.558;2023-04-05T01:32:48;99429.02;;;-0.67;92.52
78839;BME280;68405;47.190;27.558;2023-04-05T01:35:27;99431.06;;;-0.68;92.56
78839;BME280;68405;47.190;27.558;2023-04-05T01:38:01;99433.95;;;-0.71;92.54
78839;BME280;68405;47.190;27.558;2023-04-05T01:40:34;99440.95;;;-0.70;92.70
78839;BME280;68405;47.190;27.558;2023-04-05T01:43:15;99436.52;;;-0.67;92.58
78839;BME280;68405;47.190;27.558;2023-04-05T01:45:47;99444.20;;;-0.65;92.62
78839;BME280;68405;47.190;27.558;2023-04-05T01:48:18;99444.38;;;-0.63;92.50
78839;BME280;68405;47.190;27.558;2023-04-05T01:50:50;99447.10;;;-0.64;92.37
78839;BME280;68405;47.190;27.558;2023-04-05T01:53:21;99446.59;;;-0.67;92.43
78839;BME280;68405;47.190;27.558;2023-04-05T01:55:53;99445.55;;;-0.70;92.67
78839;BME280;68405;47.190;27.558;2023-04-05T01:58:24;99440.27;;;-0.70;92.46
78839;BME280;68405;47.190;27.558;2023-04-05T02:00:56;99438.74;;;-0.68;92.52
78839;BME280;68405;47.190;27.558;2023-04-05T02:03:28;99439.43;;;-0.65;92.21
78839;BME280;68405;47.190;27.558;2023-04-05T02:06:00;99439.44;;;-0.64;92.16
78839;BME280;68405;47.190;27.558;2023-04-05T02:08:32;99448.80;;;-0.66;92.05
78839;BME280;68405;47.190;27.558;2023-04-05T02:11:03;99447.61;;;-0.68;90.97
78839;BME280;68405;47.190;27.558;2023-04-05T02:13:35;99441.78;;;-0.72;90.31
78839;BME280;68405;47.190;27.558;2023-04-05T02:16:06;99444.52;;;-0.73;90.27
78839;BME280;68405;47.190;27.558;2023-04-05T02:18:38;99447.08;;;-0.71;89.99
78839;BME280;68405;47.190;27.558;2023-04-05T02:21:10;99439.59;;;-0.69;89.80
78839;BME280;68405;47.190;27.558;2023-04-05T02:23:46;99441.13;;;-0.68;89.82
78839;BME280;68405;47.190;27.558;2023-04-05T02:26:18;99436.88;;;-0.65;89.80
78839;BME280;68405;47.190;27.558;2023-04-05T02:28:50;99428.52;;;-0.64;89.48
78839;BME280;68405;47.190;27.558;2023-04-05T02:31:21;99424.25;;;-0.65;89.73
78839;BME280;68405;47.190;27.558;2023-04-05T02:33:53;99433.29;;;-0.63;89.60
78839;BME280;68405;47.190;27.558;2023-04-05T02:36:25;99424.27;;;-0.62;89.39
78839;BME280;68405;47.190;27.558;2023-04-05T02:38:57;99431.10;;;-0.60;89.43
78839;BME280;68405;47.190;27.558;2023-04-05T02:41:29;99431.27;;;-0.59;89.34
78839;BME280;68405;47.190;27.558;2023-04-05T02:44:01;99426.83;;;-0.57;89.35
78839;BME280;68405;47.190;27.558;2023-04-05T02:46:32;99421.55;;;-0.57;89.28
78839;BME280;68405;47.190;27.558;2023-04-05T02:49:04;99432.64;;;-0.56;89.28
78839;BME280;68405;47.190;27.558;2023-04-05T02:51:36;99440.83;;;-0.56;89.41
78839;BME280;68405;47.190;27.558;2023-04-05T02:54:07;99441.34;;;-0.54;89.39
78839;BME280;68405;47.190;27.558;2023-04-05T02:56:39;99436.06;;;-0.54;89.08
78839;BME280;68405;47.190;27.558;2023-04-05T02:59:11;99435.04;;;-0.54;89.20
78839;BME280;68405;47.190;27.558;2023-04-05T03:01:43;99431.62;;;-0.55;89.32
78839;BME280;68405;47.190;27.558;2023-04-05T03:04:15;99431.46;;;-0.54;89.23
78839;BME280;68405;47.190;27.558;2023-04-05T03:06:47;99425.83;;;-0.55;89.32
78839;BME280;68405;47.190;27.558;2023-04-05T03:09:21;99427.52;;;-0.55;88.96
78839;BME280;68405;47.190;27.558;2023-04-05T03:11:53;99432.31;;;-0.55;89.04
78839;BME280;68405;47.190;27.558;2023-04-05T03:14:25;99438.62;;;-0.56;88.94
78839;BME280;68405;47.190;27.558;2023-04-05T03:16:56;99444.74;;;-0.57;89.08
78839;BME280;68405;47.190;27.558;2023-04-05T03:19:28;99444.08;;;-0.56;89.18
78839;BME280;68405;47.190;27.558;2023-04-05T03:22:01;99440.66;;;-0.56;89.18
78839;BME280;68405;47.190;27.558;2023-04-05T03:24:32;99446.98;;;-0.55;89.18
78839;BME280;68405;47.190;27.558;2023-04-05T03:27:04;99443.39;;;-0.54;89.22
78839;BME280;68405;47.190;27.558;2023-04-05T03:29:36;99446.63;;;-0.55;88.95
78839;BME280;68405;47.190;27.558;2023-04-05T03:32:08;99447.82;;;-0.56;88.74
78839;BME280;68405;47.190;27.558;2023-04-05T03:34:43;99446.10;;;-0.59;88.89
78839;BME280;68405;47.190;27.558;2023-04-05T03:37:15;99445.42;;;-0.59;89.02
78839;BME280;68405;47.190;27.558;2023-04-05T03:39:46;99440.80;;;-0.58;88.90
78839;BME280;68405;47.190;27.558;2023-04-05T03:42:18;99447.64;;;-0.57;89.06
78839;BME280;68405;47.190;27.558;2023-04-05T03:44:51;99442.52;;;-0.57;88.91
78839;BME280;68405;47.190;27.558;2023-04-05T03:47:24;99442.87;;;-0.57;88.99
78839;BME280;68405;47.190;27.558;2023-04-05T03:49:57;99452.77;;;-0.57;88.82
78839;BME280;68405;47.190;27.558;2023-04-05T03:52:28;99458.90;;;-0.56;88.92
78839;BME280;68405;47.190;27.558;2023-04-05T03:55:00;99459.26;;;-0.54;89.14
78839;BME280;68405;47.190;27.558;2023-04-05T03:57:32;99462.84;;;-0.56;88.96
78839;BME280;68405;47.190;27.558;2023-04-05T04:00:05;99463.52;;;-0.57;88.77
78839;BME280;68405;47.190;27.558;2023-04-05T04:02:45;99463.85;;;-0.57;89.07
78839;BME280;68405;47.190;27.558;2023-04-05T04:05:17;99464.03;;;-0.55;89.07
78839;BME280;68405;47.190;27.558;2023-04-05T04:07:49;99462.34;;;-0.53;89.22
78839;BME280;68405;47.190;27.558;2023-04-05T04:10:21;99462.84;;;-0.53;88.93
78839;BME280;68405;47.190;27.558;2023-04-05T04:12:53;99463.34;;;-0.51;89.23
78839;BME280;68405;47.190;27.558;2023-04-05T04:15:24;99458.25;;;-0.51;88.95
78839;BME280;68405;47.190;27.558;2023-04-05T04:17:56;99455.18;;;-0.50;89.03
78839;BME280;68405;47.190;27.558;2023-04-05T04:20:28;99451.41;;;-0.51;88.94
78839;BME280;68405;47.190;27.558;2023-04-05T04:23:00;99448.17;;;-0.52;89.06
78839;BME280;68405;47.190;27.558;2023-04-05T04:25:31;99441.70;;;-0.53;88.84
78839;BME280;68405;47.190;27.558;2023-04-05T04:28:04;99442.73;;;-0.53;88.93
78839;BME280;68405;47.190;27.558;2023-04-05T04:30:37;99440.33;;;-0.52;89.17
78839;BME280;68405;47.190;27.558;2023-04-05T04:33:13;99439.48;;;-0.51;89.29
78839;BME280;68405;47.190;27.558;2023-04-05T04:35:46;99434.20;;;-0.50;88.93
78839;BME280;68405;47.190;27.558;2023-04-05T04:38:18;99440.17;;;-0.48;89.02
78839;BME280;68405;47.190;27.558;2023-04-05T04:40:50;99437.79;;;-0.46;89.09
78839;BME280;68405;47.190;27.558;2023-04-05T04:43:23;99433.52;;;-0.46;88.88
78839;BME280;68405;47.190;27.558;2023-04-05T04:45:59;99431.99;;;-0.45;89.19
78839;BME280;68405;47.190;27.558;2023-04-05T04:48:36;99436.27;;;-0.44;88.76
78839;BME280;68405;47.190;27.558;2023-04-05T04:51:11;99442.40;;;-0.44;88.91
78839;BME280;68405;47.190;27.558;2023-04-05T04:53:43;99455.02;;;-0.43;89.01
78839;BME280;68405;47.190;27.558;2023-04-05T04:56:15;99453.84;;;-0.42;88.66
78839;BME280;68405;47.190;27.558;2023-04-05T04:58:46;99455.89;;;-0.42;88.98
78839;BME280;68405;47.190;27.558;2023-04-05T05:01:18;99459.80;;;-0.43;88.81
78839;BME280;68405;47.190;27.558;2023-04-05T05:03:51;99456.74;;;-0.41;88.86
78839;BME280;68405;47.190;27.558;2023-04-05T05:06:23;99451.11;;;-0.42;88.91
78839;BME280;68405;47.190;27.558;2023-04-05T05:08:56;99451.11;;;-0.41;88.91
78839;BME280;68405;47.190;27.558;2023-04-05T05:11:28;99449.42;;;-0.41;88.81
78839;BME280;68405;47.190;27.558;2023-04-05T05:14:00;99452.46;;;-0.39;88.64
78839;BME280;68405;47.190;27.558;2023-04-05T05:16:32;99450.94;;;-0.40;88.74
78839;BME280;68405;47.190;27.558;2023-04-05T05:19:04;99444.30;;;-0.41;88.71
78839;BME280;68405;47.190;27.558;2023-04-05T05:21:36;99449.91;;;-0.43;88.52
78839;BME280;68405;47.190;27.558;2023-04-05T05:24:08;99448.55;;;-0.44;88.65
78839;BME280;68405;47.190;27.558;2023-04-05T05:26:40;99455.20;;;-0.41;88.79
78839;BME280;68405;47.190;27.558;2023-04-05T05:29:12;99445.48;;;-0.41;88.50
78839;BME280;68405;47.190;27.558;2023-04-05T05:31:44;99454.88;;;-0.42;88.79
78839;BME280;68405;47.190;27.558;2023-04-05T05:34:15;99453.66;;;-0.42;88.71
78839;BME280;68405;47.190;27.558;2023-04-05T05:36:48;99452.14;;;-0.43;88.71
78839;BME280;68405;47.190;27.558;2023-04-05T05:39:21;99456.05;;;-0.42;88.53
78839;BME280;68405;47.190;27.558;2023-04-05T05:41:54;99454.02;;;-0.40;88.79
78839;BME280;68405;47.190;27.558;2023-04-05T05:44:26;99452.65;;;-0.39;88.57
78839;BME280;68405;47.190;27.558;2023-04-05T05:46:57;99452.15;;;-0.37;88.73
78839;BME280;68405;47.190;27.558;2023-04-05T05:49:29;99451.81;;;-0.36;88.74
78839;BME280;68405;47.190;27.558;2023-04-05T05:52:01;99447.71;;;-0.34;88.73
78839;BME280;68405;47.190;27.558;2023-04-05T05:54:33;99445.16;;;-0.34;88.45
78839;BME280;68405;47.190;27.558;2023-04-05T05:57:05;99452.15;;;-0.34;88.33
78839;BME280;68405;47.190;27.558;2023-04-05T05:59:36;99451.30;;;-0.33;88.66
78839;BME280;68405;47.190;27.558;2023-04-05T06:02:08;99452.00;;;-0.32;88.47
78839;BME280;68405;47.190;27.558;2023-04-05T06:04:41;99459.00;;;-0.30;88.63
78839;BME280;68405;47.190;27.558;2023-04-05T06:07:13;99458.83;;;-0.32;88.42
78839;BME280;68405;47.190;27.558;2023-04-05T06:09:44;99455.23;;;-0.30;88.67
78839;BME280;68405;47.190;27.558;2023-04-05T06:12:17;99460.70;;;-0.29;88.52
78839;BME280;68405;47.190;27.558;2023-04-05T06:14:49;99466.51;;;-0.29;88.65
78839;BME280;68405;47.190;27.558;2023-04-05T06:17:20;99464.29;;;-0.29;88.47
78839;BME280;68405;47.190;27.558;2023-04-05T06:19:52;99465.31;;;-0.28;88.38
78839;BME280;68405;47.190;27.558;2023-04-05T06:22:24;99467.02;;;-0.27;88.63
78839;BME280;68405;47.190;27.558;2023-04-05T06:24:56;99463.77;;;-0.26;88.41
78839;BME280;68405;47.190;27.558;2023-04-05T06:27:28;99464.29;;;-0.25;88.45
78839;BME280;68405;47.190;27.558;2023-04-05T06:30:01;99465.66;;;-0.23;88.39
78839;BME280;68405;47.190;27.558;2023-04-05T06:32:33;99458.34;;;-0.21;88.48
78839;BME280;68405;47.190;27.558;2023-04-05T06:35:07;99461.59;;;-0.20;88.25
78839;BME280;68405;47.190;27.558;2023-04-05T06:37:39;99463.46;;;-0.19;88.17
78839;BME280;68405;47.190;27.558;2023-04-05T06:40:11;99466.70;;;-0.18;88.15
78839;BME280;68405;47.190;27.558;2023-04-05T06:42:44;99472.17;;;-0.16;88.32
78839;BME280;68405;47.190;27.558;2023-04-05T06:45:16;99472.69;;;-0.14;88.47
78839;BME280;68405;47.190;27.558;2023-04-05T06:47:49;99470.30;;;-0.11;88.28
78839;BME280;68405;47.190;27.558;2023-04-05T06:50:21;99470.29;;;-0.14;88.15
78839;BME280;68405;47.190;27.558;2023-04-05T06:52:53;99476.11;;;-0.13;88.11
78839;BME280;68405;47.190;27.558;2023-04-05T06:55:25;99472.86;;;-0.12;88.41
78839;BME280;68405;47.190;27.558;2023-04-05T06:57:57;99471.84;;;-0.10;88.03
78839;BME280;68405;47.190;27.558;2023-04-05T07:00:29;99470.48;;;-0.09;88.05
78839;BME280;68405;47.190;27.558;2023-04-05T07:03:01;99468.44;;;-0.08;88.01
78839;BME280;68405;47.190;27.558;2023-04-05T07:05:33;99464.85;;;-0.06;87.94
78839;BME280;68405;47.190;27.558;2023-04-05T07:08:05;99467.23;;;-0.05;87.95
78839;BME280;68405;47.190;27.558;2023-04-05T07:10:40;99475.10;;;-0.06;87.74
78839;BME280;68405;47.190;27.558;2023-04-05T07:13:12;99468.95;;;-0.07;87.79
78839;BME280;68405;47.190;27.558;2023-04-05T07:15:44;99471.00;;;-0.03;87.92
78839;BME280;68405;47.190;27.558;2023-04-05T07:18:17;99471.18;;;-0.00;87.79
78839;BME280;68405;47.190;27.558;2023-04-05T07:20:49;99471.36;;;0.03;87.66
78839;BME280;68405;47.190;27.558;2023-04-05T07:23:21;99465.72;;;0.06;87.81
78839;BME280;68405;47.190;27.558;2023-04-05T07:25:53;99470.32;;;0.04;87.64
78839;BME280;68405;47.190;27.558;2023-04-05T07:28:25;99474.60;;;0.04;87.55
78839;BME280;68405;47.190;27.558;2023-04-05T07:30:56;99478.02;;;0.04;87.87
78839;BME280;68405;47.190;27.558;2023-04-05T07:33:28;99483.65;;;0.07;87.85
78839;BME280;68405;47.190;27.558;2023-04-05T07:36:00;99488.77;;;0.08;88.20
78839;BME280;68405;47.190;27.558;2023-04-05T07:38:32;99485.36;;;0.06;87.62
78839;BME280;68405;47.190;27.558;2023-04-05T07:41:04;99491.16;;;0.06;87.42
78839;BME280;68405;47.190;27.558;2023-04-05T07:43:36;99483.99;;;0.07;87.78
78839;BME280;68405;47.190;27.558;2023-04-05T07:46:07;99489.45;;;0.05;87.90
78839;BME280;68405;47.190;27.558;2023-04-05T07:48:39;99489.46;;;0.04;87.93
78839;BME280;68405;47.190;27.558;2023-04-05T07:51:11;99486.55;;;0.09;87.87
78839;BME280;68405;47.190;27.558;2023-04-05T07:53:43;99489.98;;;0.11;87.71
78839;BME280;68405;47.190;27.558;2023-04-05T07:56:15;99496.81;;;0.11;88.09
78839;BME280;68405;47.190;27.558;2023-04-05T07:58:47;99494.41;;;0.12;87.81
78839;BME280;68405;47.190;27.558;2023-04-05T08:01:20;99487.23;;;0.11;87.75
78839;BME280;68405;47.190;27.558;2023-04-05T08:03:57;99490.16;;;0.11;87.96
78839;BME280;68405;47.190;27.558;2023-04-05T08:06:29;99496.29;;;0.11;87.72
78839;BME280;68405;47.190;27.558;2023-04-05T08:09:00;99497.99;;;0.10;87.97
78839;BME280;68405;47.190;27.558;2023-04-05T08:11:34;99498.34;;;0.14;87.91
78839;BME280;68405;47.190;27.558;2023-04-05T08:14:06;99494.59;;;0.19;87.81
78839;BME280;68405;47.190;27.558;2023-04-05T08:16:38;99490.17;;;0.23;87.63
78839;BME280;68405;47.190;27.558;2023-04-05T08:19:10;99494.95;;;0.25;87.91
78839;BME280;68405;47.190;27.558;2023-04-05T08:21:42;99492.71;;;0.25;87.76
78839;BME280;68405;47.190;27.558;2023-04-05T08:24:14;99497.33;;;0.21;87.43
78839;BME280;68405;47.190;27.558;2023-04-05T08:26:45;99498.53;;;0.21;87.55
78839;BME280;68405;47.190;27.558;2023-04-05T08:29:17;99498.87;;;0.25;87.66
78839;BME280;68405;47.190;27.558;2023-04-05T08:31:49;99496.83;;;0.29;87.55
78839;BME280;68405;47.190;27.558;2023-04-05T08:34:21;99499.90;;;0.28;87.34
78839;BME280;68405;47.190;27.558;2023-04-05T08:36:53;99499.38;;;0.27;86.91
78839;BME280;68405;47.190;27.558;2023-04-05T08:39:28;99498.88;;;0.29;87.22
78839;BME280;68405;47.190;27.558;2023-04-05T08:42:06;99501.61;;;0.30;86.95
78839;BME280;68405;47.190;27.558;2023-04-05T08:44:42;99505.19;;;0.25;86.75
78839;BME280;68405;47.190;27.558;2023-04-05T08:47:19;99506.39;;;0.27;87.45
78839;BME280;68405;47.190;27.558;2023-04-05T08:49:52;99505.71;;;0.30;87.30
78839;BME280;68405;47.190;27.558;2023-04-05T08:52:25;99504.88;;;0.38;87.38
78839;BME280;68405;47.190;27.558;2023-04-05T08:54:57;99502.98;;;0.40;86.90
78839;BME280;68405;47.190;27.558;2023-04-05T08:57:31;99508.98;;;0.41;87.15
78839;BME280;68405;47.190;27.558;2023-04-05T09:00:09;99512.22;;;0.41;86.94
78839;BME280;68405;47.190;27.558;2023-04-05T09:02:40;99515.30;;;0.39;86.53
78839;BME280;68405;47.190;27.558;2023-04-05T09:05:14;99518.52;;;0.33;86.54
78839;BME280;68405;47.190;27.558;2023-04-05T09:07:48;99511.52;;;0.30;86.87
78839;BME280;68405;47.190;27.558;2023-04-05T09:10:21;99513.91;;;0.33;87.03
78839;BME280;68405;47.190;27.558;2023-04-05T09:12:54;99519.73;;;0.34;87.31
78839;BME280;68405;47.190;27.558;2023-04-05T09:15:26;99514.09;;;0.42;87.34
78839;BME280;68405;47.190;27.558;2023-04-05T09:17:58;99518.70;;;0.44;86.61
78839;BME280;68405;47.190;27.558;2023-04-05T09:20:30;99517.18;;;0.40;86.25
78839;BME280;68405;47.190;27.558;2023-04-05T09:23:01;99516.66;;;0.43;87.06
78839;BME280;68405;47.190;27.558;2023-04-05T09:25:38;99511.19;;;0.47;86.83
78839;BME280;68405;47.190;27.558;2023-04-05T09:28:11;99513.24;;;0.49;86.65
78839;BME280;68405;47.190;27.558;2023-04-05T09:30:46;99515.48;;;0.54;86.50
78839;BME280;68405;47.190;27.558;2023-04-05T09:33:20;99513.77;;;0.59;86.86
78839;BME280;68405;47.190;27.558;2023-04-05T09:35:52;99516.34;;;0.64;86.69
78839;BME280;68405;47.190;27.558;2023-04-05T09:38:43;99510.00;;;0.67;86.20
78839;BME280;68405;47.190;27.558;2023-04-05T09:41:15;99505.56;;;0.62;85.84
78839;BME280;68405;47.190;27.558;2023-04-05T09:43:47;99507.95;;;0.64;86.24
78839;BME280;68405;47.190;27.558;2023-04-05T09:46:30;99507.25;;;0.69;86.26
78839;BME280;68405;47.190;27.558;2023-04-05T09:49:03;99504.20;;;0.64;85.94
78839;BME280;68405;47.190;27.558;2023-04-05T09:51:37;99504.89;;;0.62;86.35
78839;BME280;68405;47.190;27.558;2023-04-05T09:54:10;99496.33;;;0.61;86.35
78839;BME280;68405;47.190;27.558;2023-04-05T09:56:54;99495.64;;;0.66;86.72
78839;BME280;68405;47.190;27.558;2023-04-05T09:59:26;99498.89;;;0.69;86.63
78839;BME280;68405;47.190;27.558;2023-04-05T10:01:58;99496.33;;;0.74;86.17
78839;BME280;68405;47.190;27.558;2023-04-05T10:07:18;99497.17;;;0.75;86.09
78839;BME280;68405;47.190;27.558;2023-04-05T10:09:50;99496.84;;;0.79;86.27
78839;BME280;68405;47.190;27.558;2023-04-05T10:12:45;99492.39;;;0.80;85.69
78839;BME280;68405;47.190;27.558;2023-04-05T10:15:19;99489.98;;;0.87;86.32
78839;BME280;68405;47.190;27.558;2023-04-05T10:17:54;99493.57;;;0.93;85.87
78839;BME280;68405;47.190;27.558;2023-04-05T10:20:30;99495.42;;;0.96;86.29
78839;BME280;68405;47.190;27.558;2023-04-05T10:23:08;99498.67;;;1.03;86.42
78839;BME280;68405;47.190;27.558;2023-04-05T10:25:52;99496.63;;;1.04;86.33
78839;BME280;68405;47.190;27.558;2023-04-05T10:28:31;99499.88;;;1.03;86.10
78839;BME280;68405;47.190;27.558;2023-04-05T10:31:11;99500.39;;;1.04;86.14
78839;BME280;68405;47.190;27.558;2023-04-05T10:33:52;99503.63;;;1.05;85.68
78839;BME280;68405;47.190;27.558;2023-04-05T10:36:36;99498.52;;;1.02;85.90
78839;BME280;68405;47.190;27.558;2023-04-05T10:39:15;99493.52;;;1.10;86.17
78839;BME280;68405;47.190;27.558;2023-04-05T10:41:51;99492.67;;;1.11;86.51
78839;BME280;68405;47.190;27.558;2023-04-05T10:44:21;99489.07;;;1.16;86.79
78839;BME280;68405;47.190;27.558;2023-04-05T10:46:54;99486.84;;;1.16;86.27
78839;BME280;68405;47.190;27.558;2023-04-05T10:49:39;99496.24;;;1.19;86.74
78839;BME280;68405;47.190;27.558;2023-04-05T10:52:14;99490.60;;;1.20;86.44
78839;BME280;68405;47.190;27.558;2023-04-05T10:54:47;99495.75;;;1.06;85.79
78839;BME280;68405;47.190;27.558;2023-04-05T10:57:21;99499.73;;;0.81;86.31
78839;BME280;68405;47.190;27.558;2023-04-05T10:59:54;99497.70;;;0.69;86.93
78839;BME280;68405;47.190;27.558;2023-04-05T11:02:29;99497.54;;;0.55;87.58
78839;BME280;68405;47.190;27.558;2023-04-05T11:05:05;99501.13;;;0.53;88.39
78839;BME280;68405;47.190;27.558;2023-04-05T11:07:45;99497.53;;;0.58;88.14
78839;BME280;68405;47.190;27.558;2023-04-05T11:10:20;99501.63;;;0.53;87.90
78839;BME280;68405;47.190;27.558;2023-04-05T11:13:09;99506.59;;;0.42;87.25
78839;BME280;68405;47.190;27.558;2023-04-05T11:15:41;99498.02;;;0.27;87.03
78839;BME280;68405;47.190;27.558;2023-04-05T11:18:20;99499.71;;;0.20;87.40
78839;BME280;68405;47.190;27.558;2023-04-05T11:21:04;99506.05;;;0.27;88.05
78839;BME280;68405;47.190;27.558;2023-04-05T11:24:02;99504.00;;;0.30;87.72
78839;BME280;68405;47.190;27.558;2023-04-05T11:26:56;99507.59;;;0.27;87.71
78839;BME280;68405;47.190;27.558;2023-04-05T11:29:48;99505.55;;;0.30;87.50
78839;BME280;68405;47.190;27.558;2023-04-05T11:32:20;99506.05;;;0.22;87.06
78839;BME280;68405;47.190;27.558;2023-04-05T11:35:06;99502.30;;;0.25;87.44
78839;BME280;68405;47.190;27.558;2023-04-05T11:38:04;99500.93;;;0.28;87.65
78839;BME280;68405;47.190;27.558;2023-04-05T11:40:39;99505.72;;;0.29;87.25
78839;BME280;68405;47.190;27.558;2023-04-05T11:43:12;99499.73;;;0.24;87.47
78839;BME280;68405;47.190;27.558;2023-04-05T11:45:44;99500.92;;;0.27;87.42
78839;BME280;68405;47.190;27.558;2023-04-05T11:48:18;99499.73;;;0.25;87.48
78839;BME280;68405;47.190;27.558;2023-04-05T11:50:54;99502.30;;;0.27;87.38
78839;BME280;68405;47.190;27.558;2023-04-05T11:53:27;99497.68;;;0.28;87.42
78839;BME280;68405;47.190;27.558;2023-04-05T11:56:08;99489.83;;;0.22;87.32
78839;BME280;68405;47.190;27.558;2023-04-05T11:58:42;99494.95;;;0.21;87.48
78839;BME280;68405;47.190;27.558;2023-04-05T12:01:14;99494.25;;;0.25;87.50
78839;BME280;68405;47.190;27.558;2023-04-05T12:03:54;99493.07;;;0.28;87.81
78839;BME280;68405;47.190;27.558;2023-04-05T12:06:26;99495.29;;;0.27;87.87
78839;BME280;68405;47.190;27.558;2023-04-05T12:08:58;99499.05;;;0.32;88.03
78839;BME280;68405;47.190;27.558;2023-04-05T12:11:30;99498.71;;;0.24;87.14
78839;BME280;68405;47.190;27.558;2023-04-05T12:14:02;99494.61;;;0.21;87.79
78839;BME280;68405;47.190;27.558;2023-04-05T12:16:34;99499.57;;;0.22;87.67
78839;BME280;68405;47.190;27.558;2023-04-05T12:19:05;99498.88;;;0.26;87.95
78839;BME280;68405;47.190;27.558;2023-04-05T12:21:37;99499.73;;;0.26;87.31
78839;BME280;68405;47.190;27.558;2023-04-05T12:24:09;99505.70;;;0.23;87.56
78839;BME280;68405;47.190;27.558;2023-04-05T12:26:41;99504.00;;;0.23;87.73
78839;BME280;68405;47.190;27.558;2023-04-05T12:29:13;99494.61;;;0.24;87.49
78839;BME280;68405;47.190;27.558;2023-04-05T12:31:45;99497.33;;;0.21;87.33
78839;BME280;68405;47.190;27.558;2023-04-05T12:34:24;99496.30;;;0.17;87.46
78839;BME280;68405;47.190;27.558;2023-04-05T12:36:56;99492.20;;;0.14;87.51
78839;BME280;68405;47.190;27.558;2023-04-05T12:39:32;99499.20;;;0.13;87.65
78839;BME280;68405;47.190;27.558;2023-04-05T12:42:04;99501.41;;;0.14;87.41
78839;BME280;68405;47.190;27.558;2023-04-05T12:44:36;99506.04;;;0.14;87.63
78839;BME280;68405;47.190;27.558;2023-04-05T12:47:07;99505.85;;;0.11;87.52
78839;BME280;68405;47.190;27.558;2023-04-05T12:49:40;99510.83;;;0.15;87.83
78839;BME280;68405;47.190;27.558;2023-04-05T12:52:12;99508.58;;;0.08;87.24
78839;BME280;68405;47.190;27.558;2023-04-05T12:54:55;99506.01;;;0.06;87.51
78839;BME280;68405;47.190;27.558;2023-04-05T12:57:33;99505.50;;;0.07;87.54
78839;BME280;68405;47.190;27.558;2023-04-05T13:00:07;99506.52;;;0.07;87.50
78839;BME280;68405;47.190;27.558;2023-04-05T13:02:38;99510.98;;;0.04;87.40
78839;BME280;68405;47.190;27.558;2023-04-05T13:05:10;99499.35;;;0.04;87.87
78839;BME280;68405;47.190;27.558;2023-04-05T13:07:42;99502.60;;;0.01;87.37
78839;BME280;68405;47.190;27.558;2023-04-05T13:10:14;99505.14;;;-0.07;87.35
78839;BME280;68405;47.190;27.558;2023-04-05T13:12:45;99503.23;;;-0.12;87.70
78839;BME280;68405;47.190;27.558;2023-04-05T13:45:15;99485.48;;;-0.17;92.19
78839;BME280;68405;47.190;27.558;2023-04-05T13:47:46;99487.66;;;-0.30;92.14
78839;BME280;68405;47.190;27.558;2023-04-05T13:50:18;99487.31;;;-0.32;92.25
78839;BME280;68405;47.190;27.558;2023-04-05T13:52:50;99489.88;;;-0.28;92.21
78839;BME280;68405;47.190;27.558;2023-04-05T13:55:22;99497.38;;;-0.31;92.46
78839;BME280;68405;47.190;27.558;2023-04-05T13:57:53;99494.63;;;-0.39;92.25
78839;BME280;68405;47.190;27.558;2023-04-05T14:00:25;99495.83;;;-0.38;92.86
78839;BME280;68405;47.190;27.558;2023-04-05T14:02:57;99489.33;;;-0.40;93.18